sensor_id;sensor_type;location;lat;lon;timestamp;pressure;altitude;pressure_sealevel;temperature;humidity
46015;BME280;36844;51.898;-0.874;2023-04-23T00:00:56;98967.94;;;18.69;
46015;BME280;36844;51.898;-0.874;2023-04-23T00:03:26;98968.81;;;18.66;
46015;BME280;36844;51.898;-0.874;2023-04-23T00:05:53;98968.03;;;18.66;
46015;BME280;36844;51.898;-0.874;2023-04-23T00:08:20;98961.56;;;18.63;
46015;BME280;36844;51.898;-0.874;2023-04-23T00:10:46;98963.50;;;18.63;
46015;BME280;36844;51.898;-0.874;2023-04-23T00:13:11;98963.19;;;18.61;
46015;BME280;36844;51.898;-0.874;2023-04-23T00:15:37;98963.63;;;18.59;
46015;BME280;36844;51.898;-0.874;2023-04-23T00:18:02;98958.69;;;18.58;
46015;BME280;36844;51.898;-0.874;2023-04-23T00:20:27;98946.38;;;18.57;
46015;BME280;36844;51.898;-0.874;2023-04-23T00:22:53;98951.47;;;18.55;
46015;BME280;36844;51.898;-0.874;2023-04-23T00:25:18;98947.25;;;18.54;
46015;BME280;36844;51.898;-0.874;2023-04-23T00:27:43;98947.69;;;18.52;
46015;BME280;36844;51.898;-0.874;2023-04-23T00:30:09;98948.13;;;18.51;
46015;BME280;36844;51.898;-0.874;2023-04-23T00:32:34;98943.16;;;18.49;
46015;BME280;36844;51.898;-0.874;2023-04-23T00:34:59;98945.53;;;18.47;
46015;BME280;36844;51.898;-0.874;2023-04-23T00:37:25;98939.41;;;18.47;
46015;BME280;36844;51.898;-0.874;2023-04-23T00:39:50;98931.00;;;18.45;
46015;BME280;36844;51.898;-0.874;2023-04-23T00:42:15;98926.03;;;18.43;
46015;BME280;36844;51.898;-0.874;2023-04-23T00:44:41;98925.72;;;18.41;
46015;BME280;36844;51.898;-0.874;2023-04-23T00:47:06;98918.06;;;18.40;
46015;BME280;36844;51.898;-0.874;2023-04-23T00:49:32;98920.47;;;18.38;
46015;BME280;36844;51.898;-0.874;2023-04-23T00:51:57;98913.53;;;18.37;
46015;BME280;36844;51.898;-0.874;2023-04-23T00:54:23;98912.78;;;18.36;
46015;BME280;36844;51.898;-0.874;2023-04-23T00:56:48;98909.78;;;18.34;
46015;BME280;36844;51.898;-0.874;2023-04-23T00:59:13;98898.25;;;18.34;
46015;BME280;36844;51.898;-0.874;2023-04-23T01:01:39;98901.38;;;18.32;
46015;BME280;36844;51.898;-0.874;2023-04-23T01:04:05;98897.19;;;18.31;
46015;BME280;36844;51.898;-0.874;2023-04-23T01:06:30;98894.91;;;18.30;
46015;BME280;36844;51.898;-0.874;2023-04-23T01:08:55;98890.69;;;18.29;
46015;BME280;36844;51.898;-0.874;2023-04-23T01:11:21;98891.94;;;18.28;
46015;BME280;36844;51.898;-0.874;2023-04-23T01:13:47;98890.41;;;18.27;
46015;BME280;36844;51.898;-0.874;2023-04-23T01:16:12;98883.50;;;18.26;
46015;BME280;36844;51.898;-0.874;2023-04-23T01:18:37;98883.94;;;18.24;
46015;BME280;36844;51.898;-0.874;2023-04-23T01:21:05;98881.25;;;18.24;
46015;BME280;36844;51.898;-0.874;2023-04-23T01:23:31;98875.53;;;18.22;
46015;BME280;36844;51.898;-0.874;2023-04-23T01:25:56;98879.41;;;18.21;
46015;BME280;36844;51.898;-0.874;2023-04-23T01:28:22;98878.63;;;18.21;
46015;BME280;36844;51.898;-0.874;2023-04-23T01:30:48;98887.94;;;18.20;
46015;BME280;36844;51.898;-0.874;2023-04-23T01:33:13;98881.03;;;18.19;
46015;BME280;36844;51.898;-0.874;2023-04-23T01:35:39;98878.03;;;18.17;
46015;BME280;36844;51.898;-0.874;2023-04-23T01:38:04;98873.84;;;18.16;
46015;BME280;36844;51.898;-0.874;2023-04-23T01:40:31;98884.63;;;18.16;
46015;BME280;36844;51.898;-0.874;2023-04-23T01:42:56;98876.94;;;18.14;
46015;BME280;36844;51.898;-0.874;2023-04-23T01:45:22;98876.19;;;18.14;
46015;BME280;36844;51.898;-0.874;2023-04-23T01:47:47;98874.72;;;18.13;
46015;BME280;36844;51.898;-0.874;2023-04-23T01:50:12;98870.50;;;18.12;
46015;BME280;36844;51.898;-0.874;2023-04-23T01:52:38;98865.53;;;18.10;
46015;BME280;36844;51.898;-0.874;2023-04-23T01:55:04;98862.84;;;18.10;
46015;BME280;36844;51.898;-0.874;2023-04-23T01:57:30;98865.25;;;18.08;
46015;BME280;36844;51.898;-0.874;2023-04-23T02:00:05;98859.84;;;18.08;
46015;BME280;36844;51.898;-0.874;2023-04-23T02:02:32;98860.25;;;18.07;
46015;BME280;36844;51.898;-0.874;2023-04-23T02:04:57;98856.06;;;18.06;
46015;BME280;36844;51.898;-0.874;2023-04-23T02:07:24;98845.75;;;18.04;
46015;BME280;36844;51.898;-0.874;2023-04-23T02:09:49;98849.59;;;18.03;
46015;BME280;36844;51.898;-0.874;2023-04-23T02:12:14;98856.94;;;18.03;
46015;BME280;36844;51.898;-0.874;2023-04-23T02:14:40;98854.22;;;18.03;
46015;BME280;36844;51.898;-0.874;2023-04-23T02:17:05;98850.03;;;18.02;
46015;BME280;36844;51.898;-0.874;2023-04-23T02:19:31;98853.94;;;18.01;
46015;BME280;36844;51.898;-0.874;2023-04-23T02:21:59;98856.63;;;18.01;
46015;BME280;36844;51.898;-0.874;2023-04-23T02:24:25;98849.72;;;18.00;
46015;BME280;36844;51.898;-0.874;2023-04-23T02:26:50;98850.94;;;17.99;
46015;BME280;36844;51.898;-0.874;2023-04-23T02:29:16;98846.72;;;17.98;
46015;BME280;36844;51.898;-0.874;2023-04-23T02:31:41;98850.59;;;17.97;
46015;BME280;36844;51.898;-0.874;2023-04-23T02:34:06;98853.28;;;17.97;
46015;BME280;36844;51.898;-0.874;2023-04-23T02:36:32;98844.91;;;17.95;
46015;BME280;36844;51.898;-0.874;2023-04-23T02:38:57;98850.28;;;17.95;
46015;BME280;36844;51.898;-0.874;2023-04-23T02:41:22;98839.50;;;17.95;
46015;BME280;36844;51.898;-0.874;2023-04-23T02:43:47;98838.75;;;17.94;
46015;BME280;36844;51.898;-0.874;2023-04-23T02:46:13;98840.38;;;17.92;
46015;BME280;36844;51.898;-0.874;2023-04-23T02:48:39;98845.78;;;17.92;
46015;BME280;36844;51.898;-0.874;2023-04-23T02:51:04;98840.38;;;17.92;
46015;BME280;36844;51.898;-0.874;2023-04-23T02:53:30;98833.47;;;17.91;
46015;BME280;36844;51.898;-0.874;2023-04-23T02:55:55;98842.75;;;17.90;
46015;BME280;36844;51.898;-0.874;2023-04-23T02:58:21;98844.69;;;17.89;
46015;BME280;36844;51.898;-0.874;2023-04-23T03:00:46;98838.53;;;17.89;
46015;BME280;36844;51.898;-0.874;2023-04-23T03:03:11;98835.84;;;17.89;
46015;BME280;36844;51.898;-0.874;2023-04-23T03:05:36;98842.44;;;17.88;
46015;BME280;36844;51.898;-0.874;2023-04-23T03:08:02;98847.81;;;17.88;
46015;BME280;36844;51.898;-0.874;2023-04-23T03:10:27;98844.81;;;17.86;
46015;BME280;36844;51.898;-0.874;2023-04-23T03:12:52;98843.28;;;17.85;
46015;BME280;36844;51.898;-0.874;2023-04-23T03:15:17;98852.88;;;17.86;
46015;BME280;36844;51.898;-0.874;2023-04-23T03:17:43;98845.66;;;17.83;
46015;BME280;36844;51.898;-0.874;2023-04-23T03:20:08;98843.72;;;17.83;
46015;BME280;36844;51.898;-0.874;2023-04-23T03:22:35;98839.53;;;17.82;
46015;BME280;36844;51.898;-0.874;2023-04-23T03:25:00;98836.84;;;17.82;
46015;BME280;36844;51.898;-0.874;2023-04-23T03:27:25;98842.66;;;17.81;
46015;BME280;36844;51.898;-0.874;2023-04-23T03:29:51;98850.75;;;17.81;
46015;BME280;36844;51.898;-0.874;2023-04-23T03:32:16;98844.59;;;17.80;
46015;BME280;36844;51.898;-0.874;2023-04-23T03:34:41;98847.69;;;17.78;
46015;BME280;36844;51.898;-0.874;2023-04-23T03:37:06;98846.22;;;17.77;
46015;BME280;36844;51.898;-0.874;2023-04-23T03:39:31;98842.31;;;17.78;
46015;BME280;36844;51.898;-0.874;2023-04-23T03:41:57;98844.28;;;17.78;
46015;BME280;36844;51.898;-0.874;2023-04-23T03:44:22;98840.50;;;17.75;
46015;BME280;36844;51.898;-0.874;2023-04-23T03:46:47;98838.97;;;17.74;
46015;BME280;36844;51.898;-0.874;2023-04-23T03:49:13;98837.06;;;17.75;
46015;BME280;36844;51.898;-0.874;2023-04-23T03:51:38;98832.09;;;17.73;
46015;BME280;36844;51.898;-0.874;2023-04-23T03:54:03;98840.19;;;17.73;
46015;BME280;36844;51.898;-0.874;2023-04-23T03:56:28;98836.75;;;17.73;
46015;BME280;36844;51.898;-0.874;2023-04-23T03:58:53;98836.00;;;17.72;
46015;BME280;36844;51.898;-0.874;2023-04-23T04:01:19;98835.22;;;17.72;
46015;BME280;36844;51.898;-0.874;2023-04-23T04:03:44;98835.66;;;17.70;
46015;BME280;36844;51.898;-0.874;2023-04-23T04:06:09;98831.03;;;17.71;
46015;BME280;36844;51.898;-0.874;2023-04-23T04:08:34;98831.50;;;17.69;
46015;BME280;36844;51.898;-0.874;2023-04-23T04:11:00;98828.03;;;17.69;
46015;BME280;36844;51.898;-0.874;2023-04-23T04:13:25;98824.59;;;17.68;
46015;BME280;36844;51.898;-0.874;2023-04-23T04:15:50;98829.97;;;17.68;
46015;BME280;36844;51.898;-0.874;2023-04-23T04:18:15;98817.69;;;17.67;
46015;BME280;36844;51.898;-0.874;2023-04-23T04:20:40;98824.25;;;17.66;
46015;BME280;36844;51.898;-0.874;2023-04-23T04:23:08;98828.88;;;17.66;
46015;BME280;36844;51.898;-0.874;2023-04-23T04:25:33;98814.69;;;17.65;
46015;BME280;36844;51.898;-0.874;2023-04-23T04:28:03;98819.31;;;17.65;
46015;BME280;36844;51.898;-0.874;2023-04-23T04:30:29;98827.38;;;17.65;
46015;BME280;36844;51.898;-0.874;2023-04-23T04:32:54;98823.94;;;17.64;
46015;BME280;36844;51.898;-0.874;2023-04-23T04:35:19;98821.25;;;17.64;
46015;BME280;36844;51.898;-0.874;2023-04-23T04:37:45;98825.88;;;17.64;
46015;BME280;36844;51.898;-0.874;2023-04-23T04:40:10;98822.41;;;17.63;
46015;BME280;36844;51.898;-0.874;2023-04-23T04:42:36;98824.34;;;17.63;
46015;BME280;36844;51.898;-0.874;2023-04-23T04:45:03;98820.91;;;17.62;
46015;BME280;36844;51.898;-0.874;2023-04-23T04:47:30;98826.31;;;17.62;
46015;BME280;36844;51.898;-0.874;2023-04-23T04:49:55;98822.88;;;17.62;
46015;BME280;36844;51.898;-0.874;2023-04-23T04:52:22;98818.66;;;17.61;
46015;BME280;36844;51.898;-0.874;2023-04-23T04:54:47;98830.59;;;17.60;
46015;BME280;36844;51.898;-0.874;2023-04-23T04:57:12;98837.91;;;17.59;
46015;BME280;36844;51.898;-0.874;2023-04-23T04:59:37;98828.38;;;17.58;
46015;BME280;36844;51.898;-0.874;2023-04-23T05:02:03;98833.75;;;17.58;
46015;BME280;36844;51.898;-0.874;2023-04-23T05:04:28;98831.06;;;17.58;
46015;BME280;36844;51.898;-0.874;2023-04-23T05:06:53;98832.25;;;17.57;
46015;BME280;36844;51.898;-0.874;2023-04-23T05:09:18;98830.72;;;17.56;
46015;BME280;36844;51.898;-0.874;2023-04-23T05:11:44;98833.41;;;17.56;
46015;BME280;36844;51.898;-0.874;2023-04-23T05:14:09;98829.19;;;17.55;
46015;BME280;36844;51.898;-0.874;2023-04-23T05:16:34;98834.56;;;17.55;
46015;BME280;36844;51.898;-0.874;2023-04-23T05:19:00;98834.56;;;17.55;
46015;BME280;36844;51.898;-0.874;2023-04-23T05:21:25;98832.34;;;17.54;
46015;BME280;36844;51.898;-0.874;2023-04-23T05:23:51;98838.50;;;17.54;
46015;BME280;36844;51.898;-0.874;2023-04-23T05:26:17;98842.34;;;17.53;
46015;BME280;36844;51.898;-0.874;2023-04-23T05:28:42;98850.44;;;17.53;
46015;BME280;36844;51.898;-0.874;2023-04-23T05:31:07;98843.53;;;17.52;
46015;BME280;36844;51.898;-0.874;2023-04-23T05:33:32;98843.53;;;17.52;
46015;BME280;36844;51.898;-0.874;2023-04-23T05:35:58;98844.69;;;17.51;
46015;BME280;36844;51.898;-0.874;2023-04-23T05:38:24;98846.69;;;17.51;
46015;BME280;36844;51.898;-0.874;2023-04-23T05:40:49;98848.59;;;17.50;
46015;BME280;36844;51.898;-0.874;2023-04-23T05:43:14;98848.59;;;17.50;
46015;BME280;36844;51.898;-0.874;2023-04-23T05:45:39;98836.63;;;17.51;
46015;BME280;36844;51.898;-0.874;2023-04-23T05:48:05;98850.06;;;17.51;
46015;BME280;36844;51.898;-0.874;2023-04-23T05:50:30;98856.69;;;17.50;
46015;BME280;36844;51.898;-0.874;2023-04-23T05:52:55;98847.38;;;17.51;
46015;BME280;36844;51.898;-0.874;2023-04-23T05:55:21;98849.38;;;17.51;
46015;BME280;36844;51.898;-0.874;2023-04-23T05:57:47;98859.25;;;17.54;
46015;BME280;36844;51.898;-0.874;2023-04-23T06:00:13;98858.50;;;17.53;
46015;BME280;36844;51.898;-0.874;2023-04-23T06:02:38;98861.50;;;17.55;
46015;BME280;36844;51.898;-0.874;2023-04-23T06:05:04;98864.53;;;17.57;
46015;BME280;36844;51.898;-0.874;2023-04-23T06:07:30;98864.09;;;17.59;
46015;BME280;36844;51.898;-0.874;2023-04-23T06:09:55;98871.31;;;17.62;
46015;BME280;36844;51.898;-0.874;2023-04-23T06:12:20;98875.06;;;17.64;
46015;BME280;36844;51.898;-0.874;2023-04-23T06:14:45;98874.19;;;17.67;
46015;BME280;36844;51.898;-0.874;2023-04-23T06:17:11;98873.34;;;17.70;
46015;BME280;36844;51.898;-0.874;2023-04-23T06:19:36;98879.38;;;17.74;
46015;BME280;36844;51.898;-0.874;2023-04-23T06:22:02;98872.81;;;17.75;
46015;BME280;36844;51.898;-0.874;2023-04-23T06:24:27;98883.69;;;17.85;
46015;BME280;36844;51.898;-0.874;2023-04-23T06:26:52;98886.25;;;17.88;
46015;BME280;36844;51.898;-0.874;2023-04-23T06:29:17;98876.88;;;17.93;
46015;BME280;36844;51.898;-0.874;2023-04-23T06:31:42;98874.84;;;17.97;
46015;BME280;36844;51.898;-0.874;2023-04-23T06:34:08;98870.09;;;18.01;
46015;BME280;36844;51.898;-0.874;2023-04-23T06:36:33;98866.84;;;18.06;
46015;BME280;36844;51.898;-0.874;2023-04-23T06:38:59;98868.69;;;18.09;
46015;BME280;36844;51.898;-0.874;2023-04-23T06:41:24;98866.63;;;18.13;
46015;BME280;36844;51.898;-0.874;2023-04-23T06:43:49;98865.75;;;18.16;
46015;BME280;36844;51.898;-0.874;2023-04-23T06:46:14;98867.88;;;18.21;
46015;BME280;36844;51.898;-0.874;2023-04-23T06:48:40;98868.97;;;18.23;
46015;BME280;36844;51.898;-0.874;2023-04-23T06:51:05;98867.34;;;18.26;
46015;BME280;36844;51.898;-0.874;2023-04-23T06:53:30;98869.16;;;18.29;
46015;BME280;36844;51.898;-0.874;2023-04-23T06:55:56;98869.03;;;18.32;
46015;BME280;36844;51.898;-0.874;2023-04-23T06:58:21;98871.31;;;18.34;
46015;BME280;36844;51.898;-0.874;2023-04-23T07:00:51;98880.03;;;18.38;
46015;BME280;36844;51.898;-0.874;2023-04-23T07:03:16;98876.13;;;18.39;
46015;BME280;36844;51.898;-0.874;2023-04-23T07:05:41;98877.97;;;18.42;
46015;BME280;36844;51.898;-0.874;2023-04-23T07:08:06;98887.13;;;18.44;
46015;BME280;36844;51.898;-0.874;2023-04-23T07:10:32;98885.94;;;18.45;
46015;BME280;36844;51.898;-0.874;2023-04-23T07:12:57;98890.88;;;18.47;
46015;BME280;36844;51.898;-0.874;2023-04-23T07:15:22;98887.00;;;18.48;
46015;BME280;36844;51.898;-0.874;2023-04-23T07:17:48;98899.28;;;18.49;
46015;BME280;36844;51.898;-0.874;2023-04-23T07:20:13;98894.63;;;18.49;
46015;BME280;36844;51.898;-0.874;2023-04-23T07:22:38;98901.53;;;18.50;
46015;BME280;36844;51.898;-0.874;2023-04-23T07:25:03;98909.19;;;18.52;
46015;BME280;36844;51.898;-0.874;2023-04-23T07:27:29;98908.44;;;18.51;
46015;BME280;36844;51.898;-0.874;2023-04-23T07:29:55;98901.09;;;18.52;
46015;BME280;36844;51.898;-0.874;2023-04-23T07:32:20;98904.56;;;18.52;
46015;BME280;36844;51.898;-0.874;2023-04-23T07:34:47;98916.06;;;18.53;
46015;BME280;36844;51.898;-0.874;2023-04-23T07:37:12;98910.69;;;18.53;
46015;BME280;36844;51.898;-0.874;2023-04-23T07:39:38;98912.22;;;18.54;
46015;BME280;36844;51.898;-0.874;2023-04-23T07:42:03;98910.69;;;18.53;
46015;BME280;36844;51.898;-0.874;2023-04-23T07:44:28;98916.84;;;18.53;
46015;BME280;36844;51.898;-0.874;2023-04-23T07:46:53;98910.69;;;18.53;
46015;BME280;36844;51.898;-0.874;2023-04-23T07:49:19;98918.34;;;18.54;
46015;BME280;36844;51.898;-0.874;2023-04-23T07:51:44;98917.59;;;18.54;
46015;BME280;36844;51.898;-0.874;2023-04-23T07:54:09;98924.16;;;18.53;
46015;BME280;36844;51.898;-0.874;2023-04-23T07:56:35;98921.47;;;18.53;
46015;BME280;36844;51.898;-0.874;2023-04-23T07:59:01;98916.84;;;18.53;
46015;BME280;36844;51.898;-0.874;2023-04-23T08:01:26;98922.66;;;18.52;
46015;BME280;36844;51.898;-0.874;2023-04-23T08:03:51;98919.97;;;18.52;
46015;BME280;36844;51.898;-0.874;2023-04-23T08:06:19;98925.38;;;18.52;
46015;BME280;36844;51.898;-0.874;2023-04-23T08:08:45;98929.25;;;18.51;
46015;BME280;36844;51.898;-0.874;2023-04-23T08:11:10;98928.50;;;18.50;
46015;BME280;36844;51.898;-0.874;2023-04-23T08:13:35;98923.88;;;18.51;
46015;BME280;36844;51.898;-0.874;2023-04-23T08:16:01;98930.00;;;18.51;
46015;BME280;36844;51.898;-0.874;2023-04-23T08:18:26;98929.25;;;18.51;
46015;BME280;36844;51.898;-0.874;2023-04-23T08:20:52;98928.50;;;18.50;
46015;BME280;36844;51.898;-0.874;2023-04-23T08:23:17;98927.75;;;18.50;
46015;BME280;36844;51.898;-0.874;2023-04-23T08:25:42;98926.25;;;18.49;
46015;BME280;36844;51.898;-0.874;2023-04-23T08:28:08;98915.47;;;18.49;
46015;BME280;36844;51.898;-0.874;2023-04-23T08:30:33;98918.16;;;18.49;
46015;BME280;36844;51.898;-0.874;2023-04-23T08:32:58;98917.41;;;18.48;
46015;BME280;36844;51.898;-0.874;2023-04-23T08:35:24;98915.47;;;18.49;
46015;BME280;36844;51.898;-0.874;2023-04-23T08:37:49;98926.25;;;18.49;
46015;BME280;36844;51.898;-0.874;2023-04-23T08:40:14;98917.41;;;18.48;
46015;BME280;36844;51.898;-0.874;2023-04-23T08:42:41;98919.34;;;18.48;
46015;BME280;36844;51.898;-0.874;2023-04-23T08:45:10;98920.09;;;18.48;
46015;BME280;36844;51.898;-0.874;2023-04-23T08:47:35;98923.97;;;18.47;
46015;BME280;36844;51.898;-0.874;2023-04-23T08:50:04;98924.72;;;18.48;
46015;BME280;36844;51.898;-0.874;2023-04-23T08:52:32;98925.16;;;18.46;
46015;BME280;36844;51.898;-0.874;2023-04-23T08:54:58;98922.47;;;18.46;
46015;BME280;36844;51.898;-0.874;2023-04-23T08:57:25;98926.38;;;18.45;
46015;BME280;36844;51.898;-0.874;2023-04-23T08:59:50;98929.78;;;18.46;
46015;BME280;36844;51.898;-0.874;2023-04-23T09:02:16;98933.69;;;18.45;
46015;BME280;36844;51.898;-0.874;2023-04-23T09:04:41;98927.53;;;18.44;
46015;BME280;36844;51.898;-0.874;2023-04-23T09:07:07;98925.59;;;18.45;
46015;BME280;36844;51.898;-0.874;2023-04-23T09:09:35;98922.16;;;18.44;
46015;BME280;36844;51.898;-0.874;2023-04-23T09:12:00;98919.47;;;18.44;
46015;BME280;36844;51.898;-0.874;2023-04-23T09:14:26;98913.31;;;18.44;
46015;BME280;36844;51.898;-0.874;2023-04-23T09:16:51;98917.97;;;18.43;
46015;BME280;36844;51.898;-0.874;2023-04-23T09:19:16;98909.13;;;18.43;
46015;BME280;36844;51.898;-0.874;2023-04-23T09:21:42;98910.59;;;18.44;
46015;BME280;36844;51.898;-0.874;2023-04-23T09:24:08;98910.59;;;18.44;
46015;BME280;36844;51.898;-0.874;2023-04-23T09:26:47;98911.81;;;18.43;
46015;BME280;36844;51.898;-0.874;2023-04-23T09:29:22;98903.41;;;18.41;
46015;BME280;36844;51.898;-0.874;2023-04-23T09:31:51;98908.34;;;18.42;
46015;BME280;36844;51.898;-0.874;2023-04-23T09:34:23;98900.72;;;18.41;
46015;BME280;36844;51.898;-0.874;2023-04-23T09:36:50;98901.88;;;18.40;
46015;BME280;36844;51.898;-0.874;2023-04-23T09:39:16;98897.56;;;18.42;
46015;BME280;36844;51.898;-0.874;2023-04-23T09:41:42;98894.88;;;18.42;
46015;BME280;36844;51.898;-0.874;2023-04-23T09:44:07;98893.25;;;18.45;
46015;BME280;36844;51.898;-0.874;2023-04-23T09:46:40;98890.88;;;18.47;
46015;BME280;36844;51.898;-0.874;2023-04-23T09:49:06;98893.13;;;18.48;
46015;BME280;36844;51.898;-0.874;2023-04-23T09:51:34;98890.75;;;18.50;
46015;BME280;36844;51.898;-0.874;2023-04-23T09:54:00;98893.78;;;18.52;
46015;BME280;36844;51.898;-0.874;2023-04-23T09:56:25;98896.03;;;18.54;
46015;BME280;36844;51.898;-0.874;2023-04-23T09:58:50;98887.06;;;18.57;
46015;BME280;36844;51.898;-0.874;2023-04-23T10:01:16;98881.97;;;18.59;
46015;BME280;36844;51.898;-0.874;2023-04-23T10:03:41;98880.38;;;18.61;
46015;BME280;36844;51.898;-0.874;2023-04-23T10:06:08;98884.13;;;18.64;
46015;BME280;36844;51.898;-0.874;2023-04-23T10:08:37;98890.63;;;18.66;
46015;BME280;36844;51.898;-0.874;2023-04-23T10:11:03;98882.06;;;18.68;
46015;BME280;36844;51.898;-0.874;2023-04-23T10:13:29;98881.16;;;18.71;
46015;BME280;36844;51.898;-0.874;2023-04-23T10:15:54;98881.50;;;18.73;
46015;BME280;36844;51.898;-0.874;2023-04-23T10:18:20;98871.00;;;18.75;
46015;BME280;36844;51.898;-0.874;2023-04-23T10:20:46;98872.84;;;18.78;
46015;BME280;36844;51.898;-0.874;2023-04-23T10:23:11;98875.09;;;18.80;
46015;BME280;36844;51.898;-0.874;2023-04-23T10:25:37;98874.69;;;18.81;
46015;BME280;36844;51.898;-0.874;2023-04-23T10:28:03;98875.41;;;18.82;
46015;BME280;36844;51.898;-0.874;2023-04-23T10:30:29;98869.56;;;18.83;
46015;BME280;36844;51.898;-0.874;2023-04-23T10:32:55;98876.50;;;18.84;
46015;BME280;36844;51.898;-0.874;2023-04-23T10:35:21;98872.59;;;18.85;
46015;BME280;36844;51.898;-0.874;2023-04-23T10:37:46;98871.38;;;18.86;
46015;BME280;36844;51.898;-0.874;2023-04-23T10:40:13;98865.56;;;18.88;
46015;BME280;36844;51.898;-0.874;2023-04-23T10:42:39;98873.94;;;18.90;
46015;BME280;36844;51.898;-0.874;2023-04-23T10:45:11;98872.03;;;18.90;
46015;BME280;36844;51.898;-0.874;2023-04-23T10:47:37;98870.06;;;18.91;
46015;BME280;36844;51.898;-0.874;2023-04-23T10:50:22;98866.94;;;18.92;
46015;BME280;36844;51.898;-0.874;2023-04-23T10:52:47;98864.56;;;18.94;
46015;BME280;36844;51.898;-0.874;2023-04-23T10:55:16;98862.63;;;18.95;
46015;BME280;36844;51.898;-0.874;2023-04-23T10:57:54;98862.16;;;18.96;
46015;BME280;36844;51.898;-0.874;2023-04-23T11:00:20;98863.69;;;18.97;
46015;BME280;36844;51.898;-0.874;2023-04-23T11:02:45;98861.28;;;18.99;
46015;BME280;36844;51.898;-0.874;2023-04-23T11:05:11;98858.91;;;19.01;
46015;BME280;36844;51.898;-0.874;2023-04-23T11:07:36;98861.91;;;19.03;
46015;BME280;36844;51.898;-0.874;2023-04-23T11:10:10;98858.03;;;19.04;
46015;BME280;36844;51.898;-0.874;2023-04-23T11:12:35;98859.53;;;19.05;
46015;BME280;36844;51.898;-0.874;2023-04-23T11:15:09;98851.75;;;19.07;
46015;BME280;36844;51.898;-0.874;2023-04-23T11:20:07;98857.75;;;19.11;
46015;BME280;36844;51.898;-0.874;2023-04-23T11:22:35;98853.13;;;19.12;
46015;BME280;36844;51.898;-0.874;2023-04-23T11:25:00;98859.97;;;19.13;
46015;BME280;36844;51.898;-0.874;2023-04-23T11:27:25;98861.97;;;19.12;
46015;BME280;36844;51.898;-0.874;2023-04-23T11:29:53;98867.38;;;19.12;
46015;BME280;36844;51.898;-0.874;2023-04-23T11:32:18;98863.44;;;19.13;
46015;BME280;36844;51.898;-0.874;2023-04-23T11:34:44;98870.78;;;19.13;
46015;BME280;36844;51.898;-0.874;2023-04-23T11:37:10;98864.69;;;19.12;
46015;BME280;36844;51.898;-0.874;2023-04-23T11:39:35;98865.84;;;19.11;
46015;BME280;36844;51.898;-0.874;2023-04-23T11:42:01;98868.56;;;19.11;
46015;BME280;36844;51.898;-0.874;2023-04-23T11:44:27;98859.69;;;19.11;
46015;BME280;36844;51.898;-0.874;2023-04-23T11:46:52;98866.28;;;19.10;
46015;BME280;36844;51.898;-0.874;2023-04-23T11:49:18;98855.47;;;19.10;
46015;BME280;36844;51.898;-0.874;2023-04-23T11:51:44;98863.59;;;19.10;
46015;BME280;36844;51.898;-0.874;2023-04-23T11:54:09;98859.84;;;19.07;
46015;BME280;36844;51.898;-0.874;2023-04-23T11:56:35;98858.31;;;19.06;
46015;BME280;36844;51.898;-0.874;2023-04-23T11:59:01;98859.53;;;19.05;
46015;BME280;36844;51.898;-0.874;2023-04-23T12:01:39;98858.03;;;19.04;
46015;BME280;36844;51.898;-0.874;2023-04-23T12:04:09;98857.28;;;19.04;
46015;BME280;36844;51.898;-0.874;2023-04-23T12:06:34;98855.00;;;19.02;
46015;BME280;36844;51.898;-0.874;2023-04-23T12:09:00;98852.78;;;19.01;
46015;BME280;36844;51.898;-0.874;2023-04-23T12:11:25;98857.09;;;18.98;
46015;BME280;36844;51.898;-0.874;2023-04-23T12:13:50;98850.31;;;18.94;
46015;BME280;36844;51.898;-0.874;2023-04-23T12:16:17;98852.38;;;18.90;
46015;BME280;36844;51.898;-0.874;2023-04-23T12:18:57;98846.38;;;18.86;
46015;BME280;36844;51.898;-0.874;2023-04-23T12:21:22;98843.50;;;18.80;
46015;BME280;36844;51.898;-0.874;2023-04-23T12:23:49;98847.50;;;18.75;
46015;BME280;36844;51.898;-0.874;2023-04-23T12:26:15;98845.34;;;18.70;
46015;BME280;36844;51.898;-0.874;2023-04-23T12:28:50;98847.47;;;18.66;
46015;BME280;36844;51.898;-0.874;2023-04-23T12:31:19;98842.94;;;18.63;
46015;BME280;36844;51.898;-0.874;2023-04-23T12:33:45;98848.00;;;18.61;
46015;BME280;36844;51.898;-0.874;2023-04-23T12:36:10;98847.69;;;18.59;
46015;BME280;36844;51.898;-0.874;2023-04-23T12:38:35;98842.75;;;18.58;
46015;BME280;36844;51.898;-0.874;2023-04-23T12:41:01;98839.75;;;18.56;
46015;BME280;36844;51.898;-0.874;2023-04-23T12:43:26;98840.94;;;18.55;
46015;BME280;36844;51.898;-0.874;2023-04-23T12:45:51;98847.50;;;18.54;
46015;BME280;36844;51.898;-0.874;2023-04-23T12:48:18;98839.41;;;18.54;
46015;BME280;36844;51.898;-0.874;2023-04-23T12:50:44;98841.34;;;18.53;
46015;BME280;36844;51.898;-0.874;2023-04-23T12:53:10;98835.97;;;18.53;
46015;BME280;36844;51.898;-0.874;2023-04-23T12:55:35;98835.97;;;18.53;
46015;BME280;36844;51.898;-0.874;2023-04-23T12:58:02;98841.69;;;18.55;
46015;BME280;36844;51.898;-0.874;2023-04-23T13:00:28;98841.22;;;18.57;
46015;BME280;36844;51.898;-0.874;2023-04-23T13:02:53;98846.63;;;18.57;
46015;BME280;36844;51.898;-0.874;2023-04-23T13:05:18;98846.94;;;18.59;
46015;BME280;36844;51.898;-0.874;2023-04-23T13:07:44;98843.03;;;18.60;
46015;BME280;36844;51.898;-0.874;2023-04-23T13:10:09;98841.88;;;18.61;
46015;BME280;36844;51.898;-0.874;2023-04-23T13:12:34;98845.63;;;18.63;
46015;BME280;36844;51.898;-0.874;2023-04-23T13:15:00;98838.28;;;18.64;
46015;BME280;36844;51.898;-0.874;2023-04-23T13:17:25;98838.63;;;18.66;
46015;BME280;36844;51.898;-0.874;2023-04-23T13:19:54;98848.53;;;18.69;
46015;BME280;36844;51.898;-0.874;2023-04-23T13:22:20;98850.44;;;18.68;
46015;BME280;36844;51.898;-0.874;2023-04-23T13:24:45;98844.66;;;18.70;
46015;BME280;36844;51.898;-0.874;2023-04-23T13:27:10;98838.03;;;18.71;
46015;BME280;36844;51.898;-0.874;2023-04-23T13:29:35;98838.38;;;18.73;
46015;BME280;36844;51.898;-0.874;2023-04-23T13:32:01;98840.59;;;18.74;
46015;BME280;36844;51.898;-0.874;2023-04-23T13:34:26;98839.41;;;18.75;
46015;BME280;36844;51.898;-0.874;2023-04-23T13:36:51;98836.31;;;18.77;
46015;BME280;36844;51.898;-0.874;2023-04-23T13:39:16;98845.88;;;18.78;